createdAt,value
2023-05-17T00:03:36.090Z,5.00
2023-05-17T00:08:38.876Z,4.75
2023-05-17T00:13:42.348Z,4.75
2023-05-17T00:18:46.678Z,4.50
2023-05-17T00:23:49.508Z,6.25
2023-05-17T00:28:52.283Z,5.00
2023-05-17T00:33:56.485Z,4.00
2023-05-17T00:38:59.323Z,5.00
2023-05-17T00:44:02.175Z,4.25
2023-05-17T00:49:06.657Z,5.00
2023-05-17T00:54:10.306Z,4.25
2023-05-17T00:59:14.997Z,6.00
2023-05-17T01:04:19.811Z,4.00
2023-05-17T01:09:23.056Z,5.00
2023-05-17T01:14:41.273Z,4.50
2023-05-17T01:19:58.115Z,4.00
2023-05-17T01:25:11.897Z,4.00
2023-05-17T01:30:18.111Z,4.00
2023-05-17T01:35:20.971Z,4.25
2023-05-17T01:40:24.688Z,5.00
2023-05-17T01:45:33.608Z,3.50
2023-05-17T01:50:37.802Z,4.50
2023-05-17T01:55:45.852Z,4.00
2023-05-17T02:00:53.422Z,4.25
2023-05-17T02:05:56.202Z,4.25
2023-05-17T02:10:59.059Z,4.50
2023-05-17T02:16:03.981Z,4.00
2023-05-17T02:21:08.798Z,4.00
2023-05-17T02:26:12.632Z,3.25
2023-05-17T02:31:16.762Z,4.25
2023-05-17T02:36:19.562Z,4.00
2023-05-17T02:41:22.400Z,2.75
2023-05-17T02:46:28.270Z,4.00
2023-05-17T02:51:31.191Z,3.00
2023-05-17T02:56:34.079Z,3.00
2023-05-17T03:01:38.457Z,3.50
2023-05-17T03:06:41.446Z,3.25
2023-05-17T03:11:44.732Z,2.00
2023-05-17T03:16:56.097Z,3.00
2023-05-17T03:21:59.553Z,3.50
2023-05-17T03:27:02.529Z,4.00
2023-05-17T03:32:07.986Z,2.75
2023-05-17T03:37:11.013Z,2.00
2023-05-17T03:42:14.247Z,3.00
2023-05-17T03:47:19.250Z,2.75
2023-05-17T03:52:22.072Z,2.00
2023-05-17T03:57:25.355Z,2.75
2023-05-17T04:02:29.602Z,3.00
2023-05-17T04:07:32.485Z,3.00
2023-05-17T04:12:35.343Z,3.00
2023-05-17T04:17:39.570Z,3.00
2023-05-17T04:22:42.388Z,3.00
2023-05-17T04:27:47.437Z,2.25
2023-05-17T04:32:51.978Z,3.00
2023-05-17T04:37:55.372Z,3.00
2023-05-17T04:42:58.674Z,2.00
2023-05-17T04:48:04.203Z,2.50
2023-05-17T04:53:08.763Z,3.00
2023-05-17T04:58:13.084Z,1.75
2023-05-17T05:03:17.450Z,2.00
2023-05-17T05:08:21.872Z,1.75
2023-05-17T05:13:24.868Z,1.50
2023-05-17T05:18:30.822Z,2.50
2023-05-17T05:23:34.427Z,1.50
2023-05-17T05:28:37.564Z,1.75
2023-05-17T05:33:42.923Z,2.00
2023-05-17T05:38:46.018Z,1.75
2023-05-17T05:43:48.872Z,2.25
2023-05-17T05:48:53.401Z,1.00
2023-05-17T05:53:56.451Z,2.00
2023-05-17T05:58:59.324Z,2.00
2023-05-17T06:04:04.185Z,1.50
2023-05-17T06:09:07.480Z,1.50
2023-05-17T06:14:11.333Z,1.50
2023-05-17T06:19:15.604Z,3.00
2023-05-17T06:24:18.640Z,2.00
2023-05-17T06:29:21.410Z,2.00
2023-05-17T06:34:25.553Z,2.00
2023-05-17T06:39:28.597Z,2.00
2023-05-17T06:44:31.558Z,2.00
2023-05-17T06:49:36.091Z,2.00
2023-05-17T06:54:38.956Z,1.75
2023-05-17T06:59:42.806Z,2.00
2023-05-17T07:04:47.109Z,2.50
2023-05-17T07:09:50.037Z,0.75
2023-05-17T07:14:53.090Z,4.00
2023-05-17T07:19:57.460Z,5.00
2023-05-17T07:25:00.501Z,4.50
2023-05-17T07:30:04.075Z,4.00
2023-05-17T07:35:08.890Z,5.00
2023-05-17T07:40:12.796Z,4.00
2023-05-17T07:45:16.048Z,3.00
2023-05-17T07:50:20.363Z,3.00
2023-05-17T07:55:23.234Z,3.00
2023-05-17T08:00:27.813Z,2.00
2023-05-17T08:05:32.319Z,2.50
2023-05-17T08:10:36.615Z,2.25
2023-05-17T08:15:39.672Z,1.50
2023-05-17T08:20:44.241Z,2.00
2023-05-17T08:25:47.133Z,3.00
2023-05-17T08:30:50.106Z,2.25
2023-05-17T08:35:57.799Z,2.00
2023-05-17T08:41:02.126Z,2.00
2023-05-17T08:46:05.280Z,2.00
2023-05-17T08:51:11.698Z,2.25
2023-05-17T08:56:18.644Z,2.00
2023-05-17T09:01:32.277Z,2.00
2023-05-17T09:06:43.560Z,3.00
2023-05-17T09:11:46.584Z,2.00
2023-05-17T09:16:57.370Z,2.00
2023-05-17T09:22:02.823Z,2.00
2023-05-17T09:27:05.990Z,3.00
2023-05-17T09:32:21.654Z,2.00
2023-05-17T09:37:27.135Z,2.50
2023-05-17T09:42:30.021Z,2.00
2023-05-17T09:47:34.165Z,2.00
2023-05-17T09:52:40.075Z,2.00
2023-05-17T09:57:44.480Z,2.00
2023-05-17T10:02:51.076Z,2.00
2023-05-17T10:07:57.546Z,1.75
2023-05-17T10:13:02.030Z,1.25
2023-05-17T10:18:07.862Z,1.50
2023-05-17T10:23:13.003Z,3.00
2023-05-17T10:28:18.482Z,2.50
2023-05-17T10:33:21.985Z,2.00
2023-05-17T10:38:38.744Z,1.50
2023-05-17T10:43:47.027Z,1.50
2023-05-17T10:48:51.969Z,2.00
2023-05-17T10:54:12.026Z,2.00
2023-05-17T10:59:17.505Z,2.00
2023-05-17T11:04:25.618Z,2.75
2023-05-17T11:09:33.430Z,2.00
2023-05-17T11:14:50.095Z,2.00
2023-05-17T11:20:13.406Z,2.00
2023-05-17T11:25:19.698Z,1.00
2023-05-17T11:30:26.724Z,1.50
2023-05-17T11:35:33.244Z,2.00
2023-05-17T11:40:37.852Z,2.00
2023-05-17T11:45:43.445Z,1.75
2023-05-17T11:50:48.824Z,1.00
2023-05-17T11:55:54.551Z,1.00
2023-05-17T12:00:59.398Z,1.00
2023-05-17T12:06:05.911Z,1.00
2023-05-17T12:11:13.462Z,2.00
2023-05-17T12:16:18.494Z,1.00
2023-05-17T12:21:23.274Z,1.75
2023-05-17T12:26:28.482Z,1.00
2023-05-17T12:31:34.747Z,1.00
2023-05-17T12:36:38.240Z,1.00
2023-05-17T12:41:44.046Z,0.75
2023-05-17T12:46:50.489Z,2.00
2023-05-17T12:51:53.295Z,1.50
2023-05-17T12:56:57.887Z,1.00
2023-05-17T13:02:00.956Z,0.75
2023-05-17T13:07:06.244Z,25.80
2023-05-17T13:12:10.495Z,34.80
2023-05-17T13:17:17.856Z,59.60
2023-05-17T13:22:20.786Z,76.60
2023-05-17T13:27:24.959Z,85.20
2023-05-17T13:32:27.881Z,101.50
2023-05-17T13:37:30.792Z,92.60
2023-05-17T13:42:35.121Z,80.20
2023-05-17T13:47:38.104Z,71.60
2023-05-17T13:52:42.445Z,68.00
2023-05-17T13:57:46.909Z,61.40
2023-05-17T14:02:50.431Z,56.00
2023-05-17T14:07:54.245Z,57.80
2023-05-17T14:12:58.741Z,63.60
2023-05-17T14:18:01.736Z,61.40
2023-05-17T14:23:04.889Z,57.80
2023-05-17T14:28:09.358Z,52.80
2023-05-17T14:33:12.589Z,51.60
2023-05-17T14:38:15.647Z,47.20
2023-05-17T14:43:20.948Z,47.80
2023-05-17T14:48:23.927Z,45.20
2023-05-17T14:53:29.197Z,43.40
2023-05-17T14:58:33.407Z,45.00
2023-05-17T15:03:36.440Z,43.80
2023-05-17T15:08:39.733Z,37.00
2023-05-17T15:13:43.974Z,39.40
2023-05-17T15:18:46.862Z,37.80
2023-05-17T15:23:50.752Z,35.40
2023-05-17T15:28:56.151Z,34.00
2023-05-17T15:33:59.223Z,34.00
2023-05-17T15:39:02.144Z,35.00
2023-05-17T15:44:09.157Z,33.40
2023-05-17T15:49:12.328Z,32.80
2023-05-17T15:54:15.823Z,32.80
2023-05-17T15:59:20.031Z,32.80
2023-05-17T16:04:22.978Z,33.20
2023-05-17T16:09:26.236Z,31.00
2023-05-17T16:14:30.512Z,31.00
2023-05-17T16:19:34.119Z,31.00
2023-05-17T16:24:37.576Z,31.00
2023-05-17T16:29:41.766Z,30.80
2023-05-17T16:34:44.638Z,27.00
2023-05-17T16:39:47.520Z,26.20
2023-05-17T16:44:52.664Z,26.20
2023-05-17T16:49:56.555Z,24.20
2023-05-17T16:55:03.445Z,23.00
2023-05-17T17:00:11.270Z,21.00
2023-05-17T17:05:14.224Z,20.60
2023-05-17T17:10:17.196Z,19.40
2023-05-17T17:15:21.871Z,16.20
2023-05-17T17:20:24.991Z,16.60
2023-05-17T17:25:28.270Z,15.20
2023-05-17T17:30:32.687Z,13.25
2023-05-17T17:35:35.656Z,12.50
2023-05-17T17:40:38.480Z,11.25
2023-05-17T17:45:42.843Z,11.25
2023-05-17T17:50:45.610Z,9.25
2023-05-17T17:55:48.651Z,10.00
2023-05-17T18:00:53.716Z,10.50
2023-05-17T18:05:56.510Z,9.75
2023-05-17T18:10:59.439Z,10.00
2023-05-17T18:16:03.902Z,10.50
2023-05-17T18:21:06.929Z,10.00
2023-05-17T18:26:09.874Z,9.25
2023-05-17T18:31:14.945Z,9.00
2023-05-17T18:36:17.838Z,8.75
2023-05-17T18:41:20.859Z,9.00
2023-05-17T18:46:25.073Z,8.50
2023-05-17T18:51:28.933Z,9.50
2023-05-17T18:56:32.680Z,8.75
2023-05-17T19:01:36.972Z,9.00
2023-05-17T19:06:41.367Z,9.00
2023-05-17T19:11:44.339Z,8.00
2023-05-17T19:16:50.177Z,7.00
2023-05-17T19:21:53.078Z,8.25
2023-05-17T19:26:55.946Z,8.50
2023-05-17T19:32:00.278Z,9.00
2023-05-17T19:37:03.116Z,8.75
2023-05-17T19:42:06.445Z,7.00
2023-05-17T19:47:10.657Z,8.50
2023-05-17T19:52:13.543Z,8.25
2023-05-17T19:57:16.428Z,7.00
2023-05-17T20:02:20.727Z,9.00
2023-05-17T20:07:26.084Z,9.50
2023-05-17T20:12:29.162Z,8.50
2023-05-17T20:17:33.554Z,8.75
2023-05-17T20:22:37.772Z,7.75
2023-05-17T20:27:40.609Z,6.75
2023-05-17T20:32:44.928Z,8.00
2023-05-17T20:37:47.737Z,8.00
2023-05-17T20:42:52.999Z,6.25
2023-05-17T20:47:57.255Z,7.00
2023-05-17T20:53:00.058Z,6.75
2023-05-17T20:58:02.899Z,7.00
2023-05-17T21:03:09.328Z,7.00
2023-05-17T21:08:13.251Z,7.00
2023-05-17T21:13:16.080Z,7.00
2023-05-17T21:18:20.329Z,7.50
2023-05-17T21:23:23.210Z,7.00
2023-05-17T21:28:26.100Z,7.00
2023-05-17T21:33:31.783Z,7.00
2023-05-17T21:38:34.592Z,6.00
2023-05-17T21:43:37.482Z,5.50
2023-05-17T21:48:41.941Z,6.00
2023-05-17T21:53:45.167Z,6.00
2023-05-17T21:58:48.087Z,7.00
2023-05-17T22:03:53.408Z,7.00
2023-05-17T22:08:56.372Z,6.00
2023-05-17T22:13:59.333Z,6.00
2023-05-17T22:19:03.916Z,5.25
2023-05-17T22:24:07.662Z,6.00
2023-05-17T22:29:10.667Z,4.50
2023-05-17T22:34:15.646Z,5.00
2023-05-17T22:39:18.507Z,5.75
2023-05-17T22:44:21.961Z,5.00
2023-05-17T22:49:26.379Z,5.00
2023-05-17T22:54:29.262Z,6.25
2023-05-17T22:59:33.080Z,5.25
2023-05-17T23:04:37.865Z,5.00
2023-05-17T23:09:41.015Z,6.00
2023-05-17T23:14:43.984Z,5.75
2023-05-17T23:19:48.122Z,6.25
2023-05-17T23:24:50.872Z,6.00
2023-05-17T23:29:54.049Z,4.50
2023-05-17T23:35:03.294Z,5.00
2023-05-17T23:40:07.408Z,4.75
2023-05-17T23:45:10.778Z,5.00
2023-05-17T23:50:14.978Z,5.00
2023-05-17T23:55:18.555Z,5.00
